sensor_id;sensor_type;location;lat;lon;timestamp;pressure;altitude;pressure_sealevel;temperature;humidity
72285;BME280;60220;53.552;10.092;2022-12-07T00:00:56;100977.44;;;4.88;81.63
72285;BME280;60220;53.552;10.092;2022-12-07T00:03:50;100971.69;;;4.48;82.18
72285;BME280;60220;53.552;10.092;2022-12-07T00:06:21;100961.56;;;4.12;84.38
72285;BME280;60220;53.552;10.092;2022-12-07T00:08:48;100952.38;;;4.34;83.39
72285;BME280;60220;53.552;10.092;2022-12-07T00:11:18;100945.59;;;4.42;83.63
72285;BME280;60220;53.552;10.092;2022-12-07T00:13:50;100947.63;;;4.64;83.17
72285;BME280;60220;53.552;10.092;2022-12-07T00:16:19;100949.75;;;4.31;82.65
72285;BME280;60220;53.552;10.092;2022-12-07T00:18:46;100945.03;;;4.63;82.46
72285;BME280;60220;53.552;10.092;2022-12-07T00:21:19;100941.34;;;5.13;81.03
72285;BME280;60220;53.552;10.092;2022-12-07T00:23:49;100936.34;;;5.33;78.91
72285;BME280;60220;53.552;10.092;2022-12-07T00:26:18;100925.13;;;5.36;79.10
72285;BME280;60220;53.552;10.092;2022-12-07T00:28:45;100914.03;;;5.55;78.04
72285;BME280;60220;53.552;10.092;2022-12-07T00:31:13;100930.63;;;4.89;80.33
72285;BME280;60220;53.552;10.092;2022-12-07T00:33:46;100935.47;;;4.63;81.00
72285;BME280;60220;53.552;10.092;2022-12-07T00:36:22;100927.81;;;4.14;82.46
72285;BME280;60220;53.552;10.092;2022-12-07T00:38:57;100923.66;;;3.72;84.64
72285;BME280;60220;53.552;10.092;2022-12-07T00:41:28;100913.94;;;4.12;84.65
72285;BME280;60220;53.552;10.092;2022-12-07T00:43:57;100910.78;;;4.34;82.99
72285;BME280;60220;53.552;10.092;2022-12-07T00:46:24;100904.16;;;4.54;82.47
72285;BME280;60220;53.552;10.092;2022-12-07T00:48:54;100899.91;;;4.01;85.02
72285;BME280;60220;53.552;10.092;2022-12-07T00:51:23;100916.00;;;4.32;84.12
72285;BME280;60220;53.552;10.092;2022-12-07T00:53:50;100904.34;;;4.66;83.02
72285;BME280;60220;53.552;10.092;2022-12-07T00:56:20;100902.63;;;4.68;82.18
72285;BME280;60220;53.552;10.092;2022-12-07T00:58:51;100898.84;;;4.45;83.15
72285;BME280;60220;53.552;10.092;2022-12-07T01:01:18;100893.94;;;4.66;82.83
72285;BME280;60220;53.552;10.092;2022-12-07T01:03:48;100886.53;;;4.98;81.23
72285;BME280;60220;53.552;10.092;2022-12-07T01:06:15;100883.00;;;4.93;82.00
72285;BME280;60220;53.552;10.092;2022-12-07T01:08:44;100887.41;;;4.34;83.10
72285;BME280;60220;53.552;10.092;2022-12-07T01:11:14;100890.28;;;4.52;83.25
72285;BME280;60220;53.552;10.092;2022-12-07T01:13:43;100888.00;;;4.13;85.09
72285;BME280;60220;53.552;10.092;2022-12-07T01:16:12;100878.44;;;4.75;83.04
72285;BME280;60220;53.552;10.092;2022-12-07T01:18:51;100876.59;;;4.65;83.03
72285;BME280;60220;53.552;10.092;2022-12-07T01:21:20;100867.53;;;4.36;82.74
72285;BME280;60220;53.552;10.092;2022-12-07T01:23:50;100875.00;;;4.13;84.93
72285;BME280;60220;53.552;10.092;2022-12-07T01:26:20;100873.75;;;4.49;83.65
72285;BME280;60220;53.552;10.092;2022-12-07T01:28:49;100871.53;;;4.14;84.20
72285;BME280;60220;53.552;10.092;2022-12-07T01:31:23;100868.72;;;4.01;85.35
72285;BME280;60220;53.552;10.092;2022-12-07T01:33:53;100863.75;;;4.16;84.06
72285;BME280;60220;53.552;10.092;2022-12-07T01:36:26;100863.56;;;4.04;84.50
72285;BME280;60220;53.552;10.092;2022-12-07T01:39:00;100865.56;;;4.20;84.24
72285;BME280;60220;53.552;10.092;2022-12-07T01:41:29;100867.75;;;3.93;85.22
72285;BME280;60220;53.552;10.092;2022-12-07T01:44:15;100875.69;;;4.02;85.21
72285;BME280;60220;53.552;10.092;2022-12-07T01:46:44;100868.03;;;4.11;85.17
72285;BME280;60220;53.552;10.092;2022-12-07T01:49:15;100858.56;;;4.16;84.81
72285;BME280;60220;53.552;10.092;2022-12-07T01:51:44;100865.41;;;4.11;84.29
72285;BME280;60220;53.552;10.092;2022-12-07T01:54:17;100864.13;;;4.40;82.74
72285;BME280;60220;53.552;10.092;2022-12-07T01:56:49;100859.69;;;4.34;83.66
72285;BME280;60220;53.552;10.092;2022-12-07T01:59:21;100867.31;;;4.21;83.59
72285;BME280;60220;53.552;10.092;2022-12-07T02:01:51;100859.41;;;4.13;84.90
72285;BME280;60220;53.552;10.092;2022-12-07T02:04:18;100869.47;;;4.51;83.75
72285;BME280;60220;53.552;10.092;2022-12-07T02:06:45;100868.66;;;4.53;82.74
72285;BME280;60220;53.552;10.092;2022-12-07T02:09:15;100855.09;;;4.80;81.83
72285;BME280;60220;53.552;10.092;2022-12-07T02:11:44;100860.34;;;4.20;83.65
72285;BME280;60220;53.552;10.092;2022-12-07T02:14:23;100854.69;;;4.47;82.62
72285;BME280;60220;53.552;10.092;2022-12-07T02:17:01;100860.56;;;4.35;82.53
72285;BME280;60220;53.552;10.092;2022-12-07T02:20:00;100863.88;;;4.22;83.95
72285;BME280;60220;53.552;10.092;2022-12-07T02:22:48;100860.22;;;4.11;84.52
72285;BME280;60220;53.552;10.092;2022-12-07T02:25:33;100854.94;;;4.05;83.31
72285;BME280;60220;53.552;10.092;2022-12-07T02:28:16;100850.16;;;4.32;82.38
72285;BME280;60220;53.552;10.092;2022-12-07T02:30:52;100856.91;;;4.21;82.62
72285;BME280;60220;53.552;10.092;2022-12-07T02:33:29;100847.25;;;4.11;82.85
72285;BME280;60220;53.552;10.092;2022-12-07T02:36:03;100844.50;;;4.02;83.79
72285;BME280;60220;53.552;10.092;2022-12-07T02:38:39;100852.00;;;3.82;84.18
72285;BME280;60220;53.552;10.092;2022-12-07T02:41:22;100841.56;;;4.39;81.71
72285;BME280;60220;53.552;10.092;2022-12-07T02:43:54;100842.66;;;3.95;82.33
72285;BME280;60220;53.552;10.092;2022-12-07T02:46:29;100850.97;;;4.29;82.14
72285;BME280;60220;53.552;10.092;2022-12-07T02:48:57;100844.94;;;4.30;81.98
72285;BME280;60220;53.552;10.092;2022-12-07T02:51:27;100844.50;;;4.02;81.03
72285;BME280;60220;53.552;10.092;2022-12-07T02:53:56;100840.09;;;3.96;82.14
72285;BME280;60220;53.552;10.092;2022-12-07T02:56:30;100850.94;;;4.26;80.87
72285;BME280;60220;53.552;10.092;2022-12-07T02:59:12;100850.44;;;3.95;81.50
72285;BME280;60220;53.552;10.092;2022-12-07T03:04:34;100859.50;;;4.21;80.60
72285;BME280;60220;53.552;10.092;2022-12-07T03:07:28;100859.41;;;4.15;81.09
72285;BME280;60220;53.552;10.092;2022-12-07T03:10:02;100864.88;;;4.31;79.78
72285;BME280;60220;53.552;10.092;2022-12-07T03:12:35;100862.09;;;4.21;80.38
72285;BME280;60220;53.552;10.092;2022-12-07T03:15:11;100856.78;;;4.12;80.40
72285;BME280;60220;53.552;10.092;2022-12-07T03:17:44;100856.81;;;4.15;79.82
72285;BME280;60220;53.552;10.092;2022-12-07T03:20:19;100852.03;;;4.42;79.41
72285;BME280;60220;53.552;10.092;2022-12-07T03:23:00;100845.78;;;4.28;79.61
72285;BME280;60220;53.552;10.092;2022-12-07T03:25:29;100841.88;;;4.00;80.40
72285;BME280;60220;53.552;10.092;2022-12-07T03:28:05;100842.59;;;3.88;80.60
72285;BME280;60220;53.552;10.092;2022-12-07T03:30:36;100843.91;;;4.19;79.89
72285;BME280;60220;53.552;10.092;2022-12-07T03:33:13;100843.00;;;4.17;79.34
72285;BME280;60220;53.552;10.092;2022-12-07T03:35:58;100848.09;;;4.10;79.69
72285;BME280;60220;53.552;10.092;2022-12-07T03:38:36;100848.91;;;4.06;79.12
72285;BME280;60220;53.552;10.092;2022-12-07T03:41:16;100839.88;;;3.82;80.68
72285;BME280;60220;53.552;10.092;2022-12-07T03:43:45;100847.78;;;3.88;79.68
72285;BME280;60220;53.552;10.092;2022-12-07T03:46:20;100850.38;;;3.90;79.56
72285;BME280;60220;53.552;10.092;2022-12-07T03:48:55;100848.41;;;3.75;81.08
72285;BME280;60220;53.552;10.092;2022-12-07T03:51:28;100850.03;;;3.67;80.98
72285;BME280;60220;53.552;10.092;2022-12-07T03:54:05;100849.38;;;3.80;79.44
72285;BME280;60220;53.552;10.092;2022-12-07T03:56:35;100851.97;;;3.80;79.94
72285;BME280;60220;53.552;10.092;2022-12-07T03:59:02;100854.69;;;3.89;79.33
72285;BME280;60220;53.552;10.092;2022-12-07T04:01:33;100856.41;;;3.87;79.92
72285;BME280;60220;53.552;10.092;2022-12-07T04:04:11;100849.72;;;4.02;79.56
72285;BME280;60220;53.552;10.092;2022-12-07T04:06:51;100860.97;;;4.02;79.09
72285;BME280;60220;53.552;10.092;2022-12-07T04:09:28;100861.50;;;3.81;79.74
72285;BME280;60220;53.552;10.092;2022-12-07T04:11:55;100861.06;;;4.08;79.22
72285;BME280;60220;53.552;10.092;2022-12-07T04:14:25;100855.84;;;3.54;80.64
72285;BME280;60220;53.552;10.092;2022-12-07T04:16:54;100861.53;;;3.84;79.46
72285;BME280;60220;53.552;10.092;2022-12-07T04:19:23;100861.66;;;3.90;79.08
72285;BME280;60220;53.552;10.092;2022-12-07T04:21:55;100854.13;;;3.55;79.47
72285;BME280;60220;53.552;10.092;2022-12-07T04:24:22;100856.34;;;3.84;79.60
72285;BME280;60220;53.552;10.092;2022-12-07T04:26:52;100855.72;;;3.99;78.31
72285;BME280;60220;53.552;10.092;2022-12-07T04:29:19;100858.44;;;3.53;79.87
72285;BME280;60220;53.552;10.092;2022-12-07T04:31:46;100864.56;;;3.59;79.20
72285;BME280;60220;53.552;10.092;2022-12-07T04:34:16;100864.06;;;3.78;78.97
72285;BME280;60220;53.552;10.092;2022-12-07T04:36:43;100872.38;;;3.58;80.08
72285;BME280;60220;53.552;10.092;2022-12-07T04:39:26;100868.22;;;3.70;78.79
72285;BME280;60220;53.552;10.092;2022-12-07T04:41:57;100861.50;;;3.81;78.95
72285;BME280;60220;53.552;10.092;2022-12-07T04:44:25;100870.66;;;3.58;78.33
72285;BME280;60220;53.552;10.092;2022-12-07T04:46:53;100874.66;;;3.94;78.73
72285;BME280;60220;53.552;10.092;2022-12-07T04:49:22;100870.56;;;3.54;79.12
72285;BME280;60220;53.552;10.092;2022-12-07T04:51:52;100876.41;;;3.42;80.98
72285;BME280;60220;53.552;10.092;2022-12-07T04:54:21;100866.44;;;3.66;79.31
72285;BME280;60220;53.552;10.092;2022-12-07T04:56:58;100862.94;;;3.64;79.58
72285;BME280;60220;53.552;10.092;2022-12-07T04:59:25;100867.47;;;3.76;78.56
72285;BME280;60220;53.552;10.092;2022-12-07T05:02:08;100868.13;;;3.64;78.82
72285;BME280;60220;53.552;10.092;2022-12-07T05:04:34;100863.84;;;3.66;78.44
72285;BME280;60220;53.552;10.092;2022-12-07T05:07:01;100858.53;;;3.60;79.14
72285;BME280;60220;53.552;10.092;2022-12-07T05:09:32;100866.03;;;3.95;77.67
72285;BME280;60220;53.552;10.092;2022-12-07T05:12:13;100859.88;;;3.89;77.18
72285;BME280;60220;53.552;10.092;2022-12-07T05:14:43;100866.16;;;4.02;77.82
72285;BME280;60220;53.552;10.092;2022-12-07T05:17:25;100858.66;;;3.66;78.12
72285;BME280;60220;53.552;10.092;2022-12-07T05:19:51;100861.44;;;3.77;77.53
72285;BME280;60220;53.552;10.092;2022-12-07T05:22:18;100863.97;;;3.74;77.84
72285;BME280;60220;53.552;10.092;2022-12-07T05:24:46;100857.59;;;3.55;77.92
72285;BME280;60220;53.552;10.092;2022-12-07T05:27:15;100861.03;;;3.54;78.25
72285;BME280;60220;53.552;10.092;2022-12-07T05:29:43;100857.84;;;3.70;78.34
72285;BME280;60220;53.552;10.092;2022-12-07T05:32:12;100859.34;;;3.08;79.50
72285;BME280;60220;53.552;10.092;2022-12-07T05:34:43;100856.09;;;3.69;78.30
72285;BME280;60220;53.552;10.092;2022-12-07T05:37:10;100854.81;;;3.43;77.92
72285;BME280;60220;53.552;10.092;2022-12-07T05:39:39;100857.75;;;3.64;77.48
72285;BME280;60220;53.552;10.092;2022-12-07T05:42:10;100859.66;;;3.74;77.18
72285;BME280;60220;53.552;10.092;2022-12-07T05:44:45;100861.38;;;3.72;78.12
72285;BME280;60220;53.552;10.092;2022-12-07T05:47:15;100864.88;;;3.76;77.12
72285;BME280;60220;53.552;10.092;2022-12-07T05:49:42;100866.47;;;3.68;76.98
72285;BME280;60220;53.552;10.092;2022-12-07T05:52:12;100857.22;;;3.83;76.05
72285;BME280;60220;53.552;10.092;2022-12-07T05:54:41;100857.28;;;3.89;76.60
72285;BME280;60220;53.552;10.092;2022-12-07T05:57:09;100869.00;;;4.19;75.20
72285;BME280;60220;53.552;10.092;2022-12-07T05:59:38;100864.22;;;3.89;75.57
72285;BME280;60220;53.552;10.092;2022-12-07T06:02:08;100861.81;;;4.01;75.58
72285;BME280;60220;53.552;10.092;2022-12-07T06:04:37;100860.09;;;4.02;76.10
72285;BME280;60220;53.552;10.092;2022-12-07T06:07:04;100859.88;;;3.88;74.99
72285;BME280;60220;53.552;10.092;2022-12-07T06:09:31;100860.94;;;4.01;75.83
72285;BME280;60220;53.552;10.092;2022-12-07T06:12:01;100859.22;;;4.01;74.65
72285;BME280;60220;53.552;10.092;2022-12-07T06:14:47;100857.16;;;4.39;73.66
72285;BME280;60220;53.552;10.092;2022-12-07T06:17:16;100856.38;;;4.45;72.48
72285;BME280;60220;53.552;10.092;2022-12-07T06:19:45;100858.69;;;4.25;73.79
72285;BME280;60220;53.552;10.092;2022-12-07T06:22:12;100856.91;;;4.21;73.90
72285;BME280;60220;53.552;10.092;2022-12-07T06:24:41;100855.16;;;4.20;73.14
72285;BME280;60220;53.552;10.092;2022-12-07T06:27:08;100853.34;;;4.13;73.66
72285;BME280;60220;53.552;10.092;2022-12-07T06:29:36;100846.47;;;3.64;75.80
72285;BME280;60220;53.552;10.092;2022-12-07T06:32:04;100852.13;;;3.40;76.40
72285;BME280;60220;53.552;10.092;2022-12-07T06:34:31;100854.00;;;3.47;75.98
72285;BME280;60220;53.552;10.092;2022-12-07T06:36:58;100851.13;;;3.81;76.00
72285;BME280;60220;53.552;10.092;2022-12-07T06:39:28;100849.69;;;3.49;77.26
72285;BME280;60220;53.552;10.092;2022-12-07T06:41:55;100852.09;;;3.37;76.80
72285;BME280;60220;53.552;10.092;2022-12-07T06:44:22;100853.16;;;3.50;76.37
72285;BME280;60220;53.552;10.092;2022-12-07T06:46:50;100860.72;;;3.36;77.30
72285;BME280;60220;53.552;10.092;2022-12-07T06:49:20;100853.03;;;2.95;78.43
72285;BME280;60220;53.552;10.092;2022-12-07T06:51:47;100852.50;;;2.68;80.40
72285;BME280;60220;53.552;10.092;2022-12-07T06:54:15;100857.44;;;2.99;80.12
72285;BME280;60220;53.552;10.092;2022-12-07T06:56:42;100847.34;;;3.15;79.32
72285;BME280;60220;53.552;10.092;2022-12-07T06:59:09;100845.13;;;3.33;79.41
72285;BME280;60220;53.552;10.092;2022-12-07T07:01:38;100840.63;;;3.24;79.27
72285;BME280;60220;53.552;10.092;2022-12-07T07:04:05;100849.72;;;3.02;79.96
72285;BME280;60220;53.552;10.092;2022-12-07T07:06:35;100843.50;;;3.41;78.96
72285;BME280;60220;53.552;10.092;2022-12-07T07:09:02;100843.81;;;3.59;78.36
72285;BME280;60220;53.552;10.092;2022-12-07T07:11:29;100846.94;;;3.40;78.76
72285;BME280;60220;53.552;10.092;2022-12-07T07:13:56;100857.06;;;3.25;79.40
72285;BME280;60220;53.552;10.092;2022-12-07T07:16:27;100862.47;;;3.37;79.99
72285;BME280;60220;53.552;10.092;2022-12-07T07:18:54;100862.44;;;3.35;79.36
72285;BME280;60220;53.552;10.092;2022-12-07T07:21:21;100850.13;;;3.24;80.13
72285;BME280;60220;53.552;10.092;2022-12-07T07:23:49;100853.63;;;3.26;80.26
72285;BME280;60220;53.552;10.092;2022-12-07T07:26:16;100855.41;;;3.30;79.42
72285;BME280;60220;53.552;10.092;2022-12-07T07:28:45;100850.34;;;3.36;79.03
72285;BME280;60220;53.552;10.092;2022-12-07T07:31:13;100848.63;;;3.36;79.53
72285;BME280;60220;53.552;10.092;2022-12-07T07:33:40;100845.78;;;3.72;78.75
72285;BME280;60220;53.552;10.092;2022-12-07T07:36:07;100854.53;;;3.29;80.06
72285;BME280;60220;53.552;10.092;2022-12-07T07:38:34;100857.22;;;3.34;79.83
72285;BME280;60220;53.552;10.092;2022-12-07T07:41:02;100859.19;;;3.47;79.26
72285;BME280;60220;53.552;10.092;2022-12-07T07:43:29;100871.06;;;3.33;78.91
72285;BME280;60220;53.552;10.092;2022-12-07T07:45:56;100872.72;;;3.31;78.77
72285;BME280;60220;53.552;10.092;2022-12-07T07:48:22;100874.66;;;3.41;79.65
72285;BME280;60220;53.552;10.092;2022-12-07T07:50:50;100870.19;;;3.34;79.25
72285;BME280;60220;53.552;10.092;2022-12-07T07:53:17;100871.06;;;3.34;79.16
72285;BME280;60220;53.552;10.092;2022-12-07T07:55:50;100872.81;;;3.83;78.01
72285;BME280;60220;53.552;10.092;2022-12-07T07:58:18;100872.94;;;3.93;76.79
72285;BME280;60220;53.552;10.092;2022-12-07T08:00:45;100874.34;;;3.74;77.20
72285;BME280;60220;53.552;10.092;2022-12-07T08:03:12;100865.47;;;3.60;77.92
72285;BME280;60220;53.552;10.092;2022-12-07T08:05:38;100867.66;;;3.37;78.32
72285;BME280;60220;53.552;10.092;2022-12-07T08:08:05;100879.66;;;2.87;79.77
72285;BME280;60220;53.552;10.092;2022-12-07T08:10:32;100880.78;;;2.99;80.51
72285;BME280;60220;53.552;10.092;2022-12-07T08:13:02;100877.25;;;3.41;79.65
72285;BME280;60220;53.552;10.092;2022-12-07T08:15:42;100874.25;;;3.20;78.87
72285;BME280;60220;53.552;10.092;2022-12-07T08:18:09;100874.25;;;3.20;79.50
72285;BME280;60220;53.552;10.092;2022-12-07T08:20:45;100882.19;;;3.77;79.14
72285;BME280;60220;53.552;10.092;2022-12-07T08:23:14;100873.56;;;3.78;77.80
72285;BME280;60220;53.552;10.092;2022-12-07T08:25:43;100872.16;;;3.98;75.91
72285;BME280;60220;53.552;10.092;2022-12-07T08:28:09;100872.09;;;3.44;77.91
72285;BME280;60220;53.552;10.092;2022-12-07T08:30:36;100873.13;;;3.52;79.39
72285;BME280;60220;53.552;10.092;2022-12-07T08:33:04;100863.16;;;3.76;77.83
72285;BME280;60220;53.552;10.092;2022-12-07T08:35:32;100869.78;;;4.12;76.12
72285;BME280;60220;53.552;10.092;2022-12-07T08:38:00;100873.72;;;3.87;76.60
72285;BME280;60220;53.552;10.092;2022-12-07T08:40:27;100881.03;;;4.14;76.36
72285;BME280;60220;53.552;10.092;2022-12-07T08:42:54;100871.59;;;3.63;77.65
72285;BME280;60220;53.552;10.092;2022-12-07T08:45:21;100870.09;;;3.77;77.81
72285;BME280;60220;53.552;10.092;2022-12-07T08:47:50;100876.34;;;3.88;78.67
72285;BME280;60220;53.552;10.092;2022-12-07T08:50:21;100881.97;;;3.63;77.86
72285;BME280;60220;53.552;10.092;2022-12-07T08:52:49;100875.41;;;3.35;79.91
72285;BME280;60220;53.552;10.092;2022-12-07T08:55:17;100882.13;;;3.24;79.46
72285;BME280;60220;53.552;10.092;2022-12-07T08:57:45;100882.31;;;3.35;80.26
72285;BME280;60220;53.552;10.092;2022-12-07T09:00:13;100881.75;;;3.51;79.01
72285;BME280;60220;53.552;10.092;2022-12-07T09:02:40;100874.75;;;3.47;79.67
72285;BME280;60220;53.552;10.092;2022-12-07T09:05:07;100878.84;;;3.33;80.23
72285;BME280;60220;53.552;10.092;2022-12-07T09:07:36;100879.88;;;3.44;80.36
72285;BME280;60220;53.552;10.092;2022-12-07T09:10:05;100890.72;;;3.68;78.87
72285;BME280;60220;53.552;10.092;2022-12-07T09:12:31;100887.22;;;3.66;79.77
72285;BME280;60220;53.552;10.092;2022-12-07T09:14:58;100881.75;;;3.51;79.49
72285;BME280;60220;53.552;10.092;2022-12-07T09:17:26;100894.19;;;3.70;79.39
72285;BME280;60220;53.552;10.092;2022-12-07T09:19:52;100881.97;;;3.63;79.74
72285;BME280;60220;53.552;10.092;2022-12-07T09:22:19;100880.63;;;3.86;79.20
72285;BME280;60220;53.552;10.092;2022-12-07T09:24:47;100882.44;;;3.92;78.64
72285;BME280;60220;53.552;10.092;2022-12-07T09:27:16;100886.16;;;4.08;79.19
72285;BME280;60220;53.552;10.092;2022-12-07T09:29:43;100884.78;;;4.31;81.33
72285;BME280;60220;53.552;10.092;2022-12-07T09:32:10;100885.28;;;4.09;79.85
72285;BME280;60220;53.552;10.092;2022-12-07T09:34:37;100878.06;;;3.89;79.67
72285;BME280;60220;53.552;10.092;2022-12-07T09:37:03;100886.78;;;3.42;79.93
72285;BME280;60220;53.552;10.092;2022-12-07T09:39:31;100888.69;;;3.52;80.54
72285;BME280;60220;53.552;10.092;2022-12-07T09:42:03;100879.13;;;4.01;79.63
72285;BME280;60220;53.552;10.092;2022-12-07T09:44:31;100872.75;;;3.82;79.90
72285;BME280;60220;53.552;10.092;2022-12-07T09:46:59;100876.59;;;4.05;79.07
72285;BME280;60220;53.552;10.092;2022-12-07T09:49:31;100877.78;;;4.27;78.44
72285;BME280;60220;53.552;10.092;2022-12-07T09:52:03;100880.72;;;3.93;79.27
72285;BME280;60220;53.552;10.092;2022-12-07T09:54:46;100882.69;;;4.09;79.30
72285;BME280;60220;53.552;10.092;2022-12-07T09:57:14;100877.56;;;4.75;77.78
72285;BME280;60220;53.552;10.092;2022-12-07T09:59:41;100885.50;;;4.86;76.34
72285;BME280;60220;53.552;10.092;2022-12-07T10:02:25;100876.63;;;4.70;76.22
72285;BME280;60220;53.552;10.092;2022-12-07T10:04:51;100882.16;;;4.96;75.85
72285;BME280;60220;53.552;10.092;2022-12-07T10:07:18;100872.44;;;4.80;76.03
72285;BME280;60220;53.552;10.092;2022-12-07T10:09:45;100879.94;;;4.58;77.26
72285;BME280;60220;53.552;10.092;2022-12-07T10:12:13;100880.34;;;4.89;76.20
72285;BME280;60220;53.552;10.092;2022-12-07T10:14:53;100866.34;;;4.78;78.10
72285;BME280;60220;53.552;10.092;2022-12-07T10:17:31;100873.03;;;4.57;77.77
72285;BME280;60220;53.552;10.092;2022-12-07T10:20:26;100871.38;;;4.65;77.87
72285;BME280;60220;53.552;10.092;2022-12-07T10:22:59;100865.97;;;4.50;77.48
72285;BME280;60220;53.552;10.092;2022-12-07T10:25:28;100864.88;;;5.01;77.43
72285;BME280;60220;53.552;10.092;2022-12-07T10:28:00;100858.94;;;5.11;75.59
72285;BME280;60220;53.552;10.092;2022-12-07T10:30:30;100866.41;;;5.65;75.26
72285;BME280;60220;53.552;10.092;2022-12-07T10:32:58;100868.06;;;4.78;75.87
72285;BME280;60220;53.552;10.092;2022-12-07T10:35:26;100866.47;;;4.90;76.21
72285;BME280;60220;53.552;10.092;2022-12-07T10:37:56;100864.97;;;5.07;75.24
72285;BME280;60220;53.552;10.092;2022-12-07T10:40:30;100860.38;;;4.86;74.93
72285;BME280;60220;53.552;10.092;2022-12-07T10:43:03;100867.00;;;4.61;75.66
72285;BME280;60220;53.552;10.092;2022-12-07T10:45:30;100871.19;;;4.50;77.58
72285;BME280;60220;53.552;10.092;2022-12-07T10:48:04;100862.44;;;5.16;75.67
72285;BME280;60220;53.552;10.092;2022-12-07T10:50:58;100867.06;;;5.44;75.30
72285;BME280;60220;53.552;10.092;2022-12-07T10:53:40;100863.56;;;5.38;72.49
72285;BME280;60220;53.552;10.092;2022-12-07T10:56:29;100859.34;;;5.53;72.98
72285;BME280;60220;53.552;10.092;2022-12-07T10:59:23;100865.13;;;5.22;73.64
72285;BME280;60220;53.552;10.092;2022-12-07T11:02:01;100847.69;;;5.12;73.00
72285;BME280;60220;53.552;10.092;2022-12-07T11:04:36;100852.84;;;6.01;71.40
72285;BME280;60220;53.552;10.092;2022-12-07T11:07:13;100846.72;;;5.96;70.31
72285;BME280;60220;53.552;10.092;2022-12-07T11:09:57;100856.06;;;5.73;70.76
72285;BME280;60220;53.552;10.092;2022-12-07T11:12:40;100846.09;;;5.26;72.74
72285;BME280;60220;53.552;10.092;2022-12-07T11:15:17;100841.16;;;5.56;70.80
72285;BME280;60220;53.552;10.092;2022-12-07T11:17:49;100834.59;;;5.06;72.31
72285;BME280;60220;53.552;10.092;2022-12-07T11:20:33;100840.56;;;4.99;70.96
72285;BME280;60220;53.552;10.092;2022-12-07T11:23:12;100838.78;;;4.92;71.78
72285;BME280;60220;53.552;10.092;2022-12-07T11:25:48;100837.41;;;5.27;69.95
72285;BME280;60220;53.552;10.092;2022-12-07T11:28:25;100836.25;;;5.90;70.13
72285;BME280;60220;53.552;10.092;2022-12-07T11:31:06;100830.53;;;5.32;69.96
72285;BME280;60220;53.552;10.092;2022-12-07T11:33:46;100833.91;;;5.25;70.59
72285;BME280;60220;53.552;10.092;2022-12-07T11:36:31;100832.19;;;5.23;68.75
72285;BME280;60220;53.552;10.092;2022-12-07T11:39:02;100828.94;;;5.46;69.25
72285;BME280;60220;53.552;10.092;2022-12-07T11:41:34;100831.50;;;5.45;70.32
72285;BME280;60220;53.552;10.092;2022-12-07T11:44:06;100828.94;;;5.46;68.65
72285;BME280;60220;53.552;10.092;2022-12-07T11:46:44;100824.56;;;5.45;68.30
72285;BME280;60220;53.552;10.092;2022-12-07T11:49:21;100830.78;;;4.76;69.51
72285;BME280;60220;53.552;10.092;2022-12-07T11:51:54;100819.88;;;5.08;69.32
72285;BME280;60220;53.552;10.092;2022-12-07T11:54:29;100815.50;;;5.02;69.43
72285;BME280;60220;53.552;10.092;2022-12-07T11:57:01;100803.53;;;5.21;68.35
72285;BME280;60220;53.552;10.092;2022-12-07T11:59:33;100816.69;;;5.36;67.81
72285;BME280;60220;53.552;10.092;2022-12-07T12:02:13;100813.75;;;5.03;66.58
72285;BME280;60220;53.552;10.092;2022-12-07T12:04:48;100808.31;;;4.82;67.05
72285;BME280;60220;53.552;10.092;2022-12-07T12:07:19;100814.84;;;5.26;67.46
72285;BME280;60220;53.552;10.092;2022-12-07T12:09:52;100816.06;;;5.66;64.67
72285;BME280;60220;53.552;10.092;2022-12-07T12:12:43;100811.63;;;5.54;64.15
72285;BME280;60220;53.552;10.092;2022-12-07T12:15:24;100818.75;;;5.78;64.64
72285;BME280;60220;53.552;10.092;2022-12-07T12:18:20;100811.34;;;5.23;65.84
72285;BME280;60220;53.552;10.092;2022-12-07T12:20:55;100817.34;;;5.15;65.83
72285;BME280;60220;53.552;10.092;2022-12-07T12:23:23;100810.75;;;5.54;65.48
72285;BME280;60220;53.552;10.092;2022-12-07T12:25:54;100811.81;;;5.76;65.64
72285;BME280;60220;53.552;10.092;2022-12-07T12:28:26;100810.97;;;5.80;63.14
72285;BME280;60220;53.552;10.092;2022-12-07T12:31:07;100801.19;;;5.51;63.69
72285;BME280;60220;53.552;10.092;2022-12-07T12:33:37;100802.84;;;5.40;65.52
72285;BME280;60220;53.552;10.092;2022-12-07T12:36:19;100805.22;;;5.17;65.00
72285;BME280;60220;53.552;10.092;2022-12-07T12:39:12;100798.31;;;5.18;64.33
72285;BME280;60220;53.552;10.092;2022-12-07T12:41:54;100802.91;;;5.49;64.50
72285;BME280;60220;53.552;10.092;2022-12-07T12:45:03;100809.00;;;5.50;64.44
72285;BME280;60220;53.552;10.092;2022-12-07T12:47:57;100795.69;;;5.18;63.38
72285;BME280;60220;53.552;10.092;2022-12-07T12:50:33;100800.06;;;5.22;64.25
72285;BME280;60220;53.552;10.092;2022-12-07T12:53:21;100802.19;;;5.67;64.44
72285;BME280;60220;53.552;10.092;2022-12-07T12:59:25;100809.81;;;5.44;64.20
72285;BME280;60220;53.552;10.092;2022-12-07T13:01:55;100814.63;;;6.00;62.62
72285;BME280;60220;53.552;10.092;2022-12-07T13:04:34;100808.16;;;5.55;63.95
72285;BME280;60220;53.552;10.092;2022-12-07T13:07:13;100804.03;;;5.82;63.33
72285;BME280;60220;53.552;10.092;2022-12-07T13:09:59;100797.88;;;5.74;63.68
72285;BME280;60220;53.552;10.092;2022-12-07T13:12:26;100801.38;;;5.73;63.59
72285;BME280;60220;53.552;10.092;2022-12-07T13:14:58;100799.03;;;6.08;63.42
72285;BME280;60220;53.552;10.092;2022-12-07T13:17:57;100805.97;;;6.09;64.45
72285;BME280;60220;53.552;10.092;2022-12-07T13:20:47;100801.38;;;5.73;61.57
72285;BME280;60220;53.552;10.092;2022-12-07T13:23:19;100802.28;;;5.81;60.36